Time;durP1;ratioP1;P1;durP2;ratioP2;P2;SDS_P1;SDS_P2;PMS_P1;PMS_P2;Temp;Humidity;BMP_temperature;BMP_pressure;BME280_temperature;BME280_humidity;BME280_pressure;Samples;Min_cycle;Max_cycle;Signal;HPM_P1;HPM_P2
2021/05/31 00:01:54;;;;;;;2.05;1.60;;;15.50;75.30;;;;;;5094524;28;20103;-74
2021/05/31 00:04:21;;;;;;;2.42;1.77;;;15.60;75.00;;;;;;5094736;28;20028;-73
2021/05/31 00:07:04;;;;;;;1.88;1.23;;;15.60;74.80;;;;;;5094798;28;20050;-74
2021/05/31 00:09:32;;;;;;;1.90;1.50;;;15.60;74.50;;;;;;5094652;28;20110;-74
2021/05/31 00:11:58;;;;;;;2.78;1.55;;;15.70;74.40;;;;;;5094564;28;20084;-74
2021/05/31 00:14:24;;;;;;;1.90;1.48;;;15.70;74.20;;;;;;5094507;28;20435;-73
2021/05/31 00:16:50;;;;;;;2.28;1.73;;;15.70;74.10;;;;;;5094531;28;20063;-74
2021/05/31 00:19:19;;;;;;;1.90;1.70;;;15.70;74.00;;;;;;5094456;28;20101;-74
2021/05/31 00:21:45;;;;;;;1.75;1.65;;;15.70;74.00;;;;;;5094331;28;20032;-73
2021/05/31 00:24:10;;;;;;;2.03;1.90;;;15.70;73.80;;;;;;5093207;28;20050;-73
2021/05/31 00:26:36;;;;;;;1.55;1.45;;;15.80;73.70;;;;;;5094281;28;20028;-73
2021/05/31 00:29:02;;;;;;;2.20;1.80;;;15.70;73.50;;;;;;5094301;28;20031;-73
2021/05/31 00:31:28;;;;;;;1.90;1.80;;;15.70;73.30;;;;;;5093973;28;20416;-74
2021/05/31 00:33:53;;;;;;;1.80;1.70;;;15.70;73.30;;;;;;5094022;28;20024;-74
2021/05/31 00:36:19;;;;;;;1.98;1.77;;;15.70;73.40;;;;;;5094246;28;20529;-73
2021/05/31 00:38:45;;;;;;;2.63;1.67;;;15.70;73.50;;;;;;5094285;28;20032;-74
2021/05/31 00:41:11;;;;;;;2.03;1.67;;;15.80;73.40;;;;;;5094121;28;20032;-73
2021/05/31 00:43:37;;;;;;;2.65;2.05;;;15.80;73.30;;;;;;5094215;28;20465;-73
2021/05/31 00:46:06;;;;;;;1.60;1.50;;;15.70;73.10;;;;;;5093524;28;20063;-73
2021/05/31 00:48:32;;;;;;;1.73;1.63;;;15.70;72.90;;;;;;5094136;28;20120;-73
2021/05/31 00:50:59;;;;;;;2.38;1.50;;;15.70;72.90;;;;;;5093582;28;20028;-73
2021/05/31 00:53:26;;;;;;;1.98;1.65;;;15.70;72.70;;;;;;5093909;28;20070;-74
2021/05/31 00:55:51;;;;;;;2.53;1.80;;;15.70;72.70;;;;;;5093460;28;20043;-74
2021/05/31 00:58:18;;;;;;;2.13;1.92;;;15.70;72.60;;;;;;5093843;28;20024;-73
2021/05/31 01:00:44;;;;;;;2.35;1.60;;;15.70;72.40;;;;;;5093818;28;20424;-73
2021/05/31 01:03:11;;;;;;;3.30;1.50;;;15.70;72.30;;;;;;5093647;28;20099;-73
2021/05/31 01:05:37;;;;;;;2.08;1.77;;;15.60;72.20;;;;;;5093746;28;20109;-74
2021/05/31 01:08:10;;;;;;;3.13;1.75;;;15.50;72.40;;;;;;5093620;28;20389;-73
2021/05/31 01:10:48;;;;;;;2.13;1.73;;;15.50;72.60;;;;;;5093682;28;20032;-73
2021/05/31 01:13:18;;;;;;;1.75;1.45;;;15.40;72.70;;;;;;5093659;28;20046;-73
2021/05/31 01:16:01;;;;;;;3.30;1.55;;;15.40;72.80;;;;;;5093535;28;20064;-73
2021/05/31 01:18:31;;;;;;;2.13;1.60;;;15.40;73.10;;;;;;5093613;28;20169;-73
2021/05/31 01:21:15;;;;;;;4.07;1.90;;;15.40;73.10;;;;;;5093754;28;20028;-74
2021/05/31 01:23:42;;;;;;;2.30;1.75;;;15.50;73.50;;;;;;5093831;28;20032;-73
2021/05/31 01:26:13;;;;;;;2.10;1.90;;;15.50;73.50;;;;;;5093363;28;20030;-73
2021/05/31 01:28:44;;;;;;;2.55;1.75;;;15.60;73.60;;;;;;5093444;28;20110;-74
2021/05/31 01:31:12;;;;;;;3.65;2.20;;;15.60;73.50;;;;;;5093137;28;20159;-74
2021/05/31 01:33:37;;;;;;;3.85;1.95;;;15.70;73.60;;;;;;5093699;28;20043;-73
2021/05/31 01:36:05;;;;;;;3.65;2.00;;;15.70;73.50;;;;;;5093331;28;20470;-74
2021/05/31 01:38:34;;;;;;;2.28;2.05;;;15.70;73.50;;;;;;5093608;28;20022;-73
2021/05/31 01:41:02;;;;;;;3.58;1.92;;;15.70;73.60;;;;;;5093248;28;20048;-73
2021/05/31 01:43:28;;;;;;;2.35;2.15;;;15.80;73.70;;;;;;5093754;28;20178;-73
2021/05/31 01:45:55;;;;;;;4.78;1.90;;;15.80;73.60;;;;;;5093303;28;20055;-74
2021/05/31 01:48:21;;;;;;;2.97;2.08;;;15.90;73.80;;;;;;5093375;28;20028;-74
2021/05/31 01:50:48;;;;;;;2.30;1.80;;;15.90;73.80;;;;;;5093475;28;20024;-73
2021/05/31 01:53:15;;;;;;;3.15;1.80;;;15.90;73.70;;;;;;5093185;28;20020;-73
2021/05/31 01:55:41;;;;;;;3.90;1.80;;;15.90;73.60;;;;;;5093263;28;20111;-74
2021/05/31 01:58:09;;;;;;;2.13;2.00;;;15.90;73.50;;;;;;5092740;28;20035;-73
2021/05/31 02:00:35;;;;;;;2.63;2.00;;;15.90;73.50;;;;;;5092052;28;20110;-74
2021/05/31 02:03:02;;;;;;;5.13;2.00;;;15.90;73.50;;;;;;5078535;28;20442;-74
2021/05/31 02:05:28;;;;;;;4.40;1.90;;;16.00;73.50;;;;;;5073042;28;20064;-73
2021/05/31 02:07:55;;;;;;;2.60;1.75;;;15.90;73.40;;;;;;5072948;28;20052;-74
2021/05/31 02:10:21;;;;;;;3.03;1.90;;;16.00;73.40;;;;;;5073362;28;20382;-74
2021/05/31 02:13:01;;;;;;;2.10;1.95;;;16.00;73.40;;;;;;5075383;28;20028;-74
2021/05/31 02:15:43;;;;;;;1.88;1.63;;;16.00;73.30;;;;;;5076727;28;20039;-74
2021/05/31 02:18:26;;;;;;;1.88;1.77;;;15.90;73.20;;;;;;5076456;28;20036;-74
2021/05/31 02:20:56;;;;;;;3.03;1.85;;;15.90;73.10;;;;;;5076704;28;20031;-73
2021/05/31 02:23:23;;;;;;;2.58;1.70;;;16.00;73.20;;;;;;5076224;28;20028;-73
2021/05/31 02:25:51;;;;;;;2.72;2.05;;;16.00;73.10;;;;;;5076336;28;20017;-74
2021/05/31 02:28:17;;;;;;;2.33;1.80;;;16.00;73.00;;;;;;5076519;28;20029;-74
2021/05/31 02:30:43;;;;;;;3.88;2.17;;;16.00;73.00;;;;;;5076501;28;20035;-73
2021/05/31 02:33:09;;;;;;;2.47;1.95;;;16.00;73.00;;;;;;5076221;28;20029;-74
2021/05/31 02:35:37;;;;;;;2.45;2.00;;;16.10;73.10;;;;;;5076186;28;20037;-74
2021/05/31 02:38:05;;;;;;;4.45;1.73;;;16.10;73.00;;;;;;5075126;28;20371;-74
2021/05/31 02:40:32;;;;;;;2.83;1.90;;;16.10;73.00;;;;;;5075954;28;20032;-74
2021/05/31 02:43:01;;;;;;;2.00;1.77;;;16.10;72.90;;;;;;5076129;28;20032;-74
2021/05/31 02:45:29;;;;;;;4.13;2.00;;;16.20;72.90;;;;;;5076097;28;20082;-74
2021/05/31 02:47:57;;;;;;;2.17;2.03;;;16.20;72.90;;;;;;5075959;28;20067;-86
2021/05/31 02:50:23;;;;;;;3.90;2.40;;;16.20;72.90;;;;;;5076018;28;20028;-74
2021/05/31 02:52:49;;;;;;;2.97;2.33;;;16.20;73.00;;;;;;5075969;28;20025;-74
2021/05/31 02:55:19;;;;;;;2.28;2.10;;;16.30;72.90;;;;;;5075667;28;20132;-74
2021/05/31 02:57:45;;;;;;;2.90;2.05;;;16.30;72.90;;;;;;5075954;28;20086;-74
2021/05/31 03:00:14;;;;;;;2.70;2.42;;;16.30;72.90;;;;;;5075791;28;20093;-74
2021/05/31 03:02:40;;;;;;;2.80;2.50;;;16.30;72.90;;;;;;5075783;28;20029;-74
2021/05/31 03:05:08;;;;;;;3.75;2.17;;;16.30;72.90;;;;;;5075450;28;20031;-74
2021/05/31 03:07:34;;;;;;;3.13;2.40;;;16.30;72.90;;;;;;5075572;28;20031;-74
2021/05/31 03:09:59;;;;;;;4.50;2.55;;;16.30;72.80;;;;;;5075261;28;20379;-75
2021/05/31 03:12:25;;;;;;;4.18;2.40;;;16.40;72.90;;;;;;5076189;28;20036;-74
2021/05/31 03:14:52;;;;;;;3.35;2.33;;;16.40;72.80;;;;;;5075183;28;20478;-74
2021/05/31 03:17:21;;;;;;;2.92;2.65;;;16.40;72.80;;;;;;5075668;28;20037;-74
2021/05/31 03:19:47;;;;;;;4.68;2.72;;;16.40;72.70;;;;;;5075467;28;20025;-74
2021/05/31 03:22:13;;;;;;;5.07;2.78;;;16.50;72.60;;;;;;5074885;28;20374;-74
2021/05/31 03:24:38;;;;;;;3.83;2.60;;;16.50;72.40;;;;;;5072804;28;20028;-74
2021/05/31 03:27:04;;;;;;;2.88;2.40;;;16.50;72.40;;;;;;5074944;28;20487;-74
2021/05/31 03:29:30;;;;;;;2.60;2.40;;;16.50;72.30;;;;;;5074918;28;20028;-74
2021/05/31 03:31:57;;;;;;;2.80;2.58;;;16.60;72.20;;;;;;5074021;28;20060;-74
2021/05/31 03:34:22;;;;;;;4.38;2.45;;;16.60;72.00;;;;;;5075308;28;20036;-74
2021/05/31 03:36:48;;;;;;;6.32;3.05;;;16.60;71.90;;;;;;5075363;28;20025;-74
2021/05/31 03:39:14;;;;;;;5.57;2.50;;;16.60;71.80;;;;;;5074592;28;20078;-74
2021/05/31 03:41:40;;;;;;;3.45;2.13;;;16.60;71.70;;;;;;5075167;28;20029;-74
2021/05/31 03:44:06;;;;;;;8.38;3.40;;;16.60;71.70;;;;;;5073656;28;20032;-74
2021/05/31 03:46:32;;;;;;;3.08;2.30;;;16.70;71.70;;;;;;5074696;28;20450;-74
2021/05/31 03:48:57;;;;;;;4.10;2.33;;;16.70;71.40;;;;;;5074655;28;20032;-74
2021/05/31 03:51:23;;;;;;;5.18;2.40;;;16.80;71.20;;;;;;5074694;28;20434;-73
2021/05/31 03:53:49;;;;;;;4.97;2.60;;;16.80;71.00;;;;;;5060244;28;20113;-75
2021/05/31 03:56:15;;;;;;;3.67;2.47;;;16.80;70.90;;;;;;5075205;28;20043;-75
2021/05/31 03:58:42;;;;;;;3.70;2.40;;;16.90;70.90;;;;;;5086478;28;20025;-73
2021/05/31 04:01:09;;;;;;;3.38;2.50;;;16.90;70.60;;;;;;5075145;28;20077;-75
2021/05/31 04:03:36;;;;;;;4.97;2.30;;;16.90;70.50;;;;;;5074473;28;20040;-75
2021/05/31 04:11:37;;;;;;;4.85;3.20;;;17.00;70.30;;;;;;5074783;28;20032;-74
2021/05/31 04:14:08;;;;;;;4.53;2.70;;;17.00;70.20;;;;;;5074276;28;20032;-76
2021/05/31 04:16:36;;;;;;;4.80;3.08;;;17.00;70.20;;;;;;5074435;28;20066;-74
2021/05/31 04:19:03;;;;;;;4.28;2.53;;;17.00;70.30;;;;;;5090804;28;20020;-76
2021/05/31 04:21:30;;;;;;;5.88;2.50;;;17.00;70.30;;;;;;5094319;28;20028;-72
2021/05/31 04:23:55;;;;;;;3.45;2.50;;;17.00;70.10;;;;;;5094277;28;20026;-72
2021/05/31 04:26:21;;;;;;;4.97;2.40;;;17.00;69.70;;;;;;5088850;28;20109;-73
2021/05/31 04:28:48;;;;;;;5.03;2.13;;;17.10;69.50;;;;;;5074266;28;20028;-74
2021/05/31 04:31:13;;;;;;;3.40;2.50;;;17.10;69.20;;;;;;5074024;28;20027;-74
2021/05/31 04:33:39;;;;;;;2.58;2.28;;;17.10;69.10;;;;;;5072849;28;20020;-74
2021/05/31 04:36:05;;;;;;;3.30;2.70;;;17.10;69.00;;;;;;5073588;28;20033;-76
2021/05/31 04:38:31;;;;;;;3.65;2.47;;;17.20;69.10;;;;;;5074101;28;20024;-74
2021/05/31 04:40:57;;;;;;;5.85;2.40;;;17.20;69.00;;;;;;5074028;28;20115;-74
2021/05/31 04:43:23;;;;;;;2.85;2.25;;;17.20;68.80;;;;;;5073798;28;20094;-74
2021/05/31 04:45:49;;;;;;;2.72;2.05;;;17.10;68.60;;;;;;5073809;28;20032;-74
2021/05/31 04:48:15;;;;;;;3.05;2.17;;;17.10;69.00;;;;;;5073336;28;20085;-73
2021/05/31 04:50:40;;;;;;;6.25;2.20;;;17.10;68.20;;;;;;5074261;28;20425;-75
2021/05/31 04:53:06;;;;;;;2.53;1.90;;;17.10;68.10;;;;;;5073466;28;20457;-74
2021/05/31 04:55:34;;;;;;;3.22;2.45;;;17.10;67.90;;;;;;5073633;28;20032;-74
2021/05/31 04:58:01;;;;;;;4.88;2.85;;;17.10;68.00;;;;;;5073570;28;20024;-74
2021/05/31 05:00:27;;;;;;;6.53;3.88;;;17.20;68.20;;;;;;5073351;28;20107;-74
2021/05/31 05:02:52;;;;;;;5.00;3.00;;;17.20;68.40;;;;;;5073540;28;20105;-74
2021/05/31 05:05:18;;;;;;;2.63;2.42;;;17.20;68.30;;;;;;5073598;28;20051;-73
2021/05/31 05:07:47;;;;;;;4.72;2.90;;;17.20;68.20;;;;;;5073652;28;20074;-73
2021/05/31 05:10:18;;;;;;;7.00;2.90;;;17.20;68.20;;;;;;5073455;28;20034;-74
2021/05/31 05:12:49;;;;;;;3.13;2.60;;;17.20;68.20;;;;;;5073763;28;20035;-74
2021/05/31 05:15:16;;;;;;;4.63;2.53;;;17.20;68.00;;;;;;5072997;28;20047;-74
2021/05/31 05:17:43;;;;;;;4.95;2.70;;;17.20;67.70;;;;;;5088980;28;20025;-74
2021/05/31 05:20:09;;;;;;;4.70;2.75;;;17.20;67.70;;;;;;5073412;28;20021;-74
2021/05/31 05:22:35;;;;;;;5.97;3.08;;;17.20;67.50;;;;;;5073310;28;20063;-75
2021/05/31 05:25:01;;;;;;;4.50;2.60;;;17.20;67.70;;;;;;5073210;28;20021;-74
2021/05/31 05:27:27;;;;;;;4.70;2.72;;;17.20;67.70;;;;;;5072728;28;20466;-75
2021/05/31 05:29:52;;;;;;;3.63;2.80;;;17.30;67.80;;;;;;5073205;28;20036;-75
2021/05/31 05:32:18;;;;;;;4.55;3.13;;;17.40;67.70;;;;;;5071809;28;20532;-74
2021/05/31 05:34:44;;;;;;;3.70;2.70;;;17.50;67.60;;;;;;5073164;28;20033;-74
2021/05/31 05:37:14;;;;;;;8.85;2.70;;;17.60;67.20;;;;;;5073168;28;20047;-75
2021/05/31 05:47:43;;;;;;;5.30;2.40;;;17.90;66.30;;;;;;5075594;28;20040;-73
2021/05/31 05:50:12;;;;;;;5.00;2.63;;;17.90;65.90;;;;;;5077094;28;20028;-74
2021/05/31 05:52:37;;;;;;;2.78;2.40;;;17.90;65.90;;;;;;5076966;28;20050;-74
2021/05/31 05:55:06;;;;;;;2.70;2.40;;;17.80;65.60;;;;;;5076815;28;20522;-73
2021/05/31 05:57:33;;;;;;;6.00;2.72;;;17.80;65.50;;;;;;5092576;28;20039;-75
2021/05/31 06:00:01;;;;;;;5.68;3.05;;;17.70;65.50;;;;;;5076879;28;20100;-74
2021/05/31 06:02:27;;;;;;;5.97;2.50;;;17.70;65.50;;;;;;5076618;28;20509;-73
2021/05/31 06:04:53;;;;;;;2.40;2.20;;;17.60;65.50;;;;;;5076834;28;20060;-73
2021/05/31 06:07:18;;;;;;;5.18;2.42;;;17.60;65.20;;;;;;5076643;28;20063;-73
2021/05/31 06:09:44;;;;;;;4.95;2.00;;;17.70;65.10;;;;;;5075505;28;20033;-73
2021/05/31 06:12:10;;;;;;;4.13;1.95;;;17.70;64.80;;;;;;5076809;28;20374;-74
2021/05/31 06:14:36;;;;;;;3.75;2.17;;;17.70;64.40;;;;;;5076230;28;20076;-74
2021/05/31 06:17:02;;;;;;;2.47;2.28;;;17.90;64.20;;;;;;5075617;28;20437;-74
2021/05/31 06:19:28;;;;;;;2.22;2.03;;;17.90;64.10;;;;;;5075094;28;20039;-80
2021/05/31 06:21:54;;;;;;;2.78;1.77;;;18.00;64.10;;;;;;5065393;28;20089;-74
2021/05/31 06:24:20;;;;;;;5.47;1.80;;;18.00;64.00;;;;;;5074319;28;20099;-80
2021/05/31 06:26:46;;;;;;;5.85;2.42;;;18.10;63.60;;;;;;5074592;28;20529;-73
2021/05/31 06:29:11;;;;;;;2.25;2.10;;;18.20;63.30;;;;;;5060259;28;20040;-74
2021/05/31 06:31:38;;;;;;;3.10;2.55;;;18.20;63.10;;;;;;5055549;28;20024;-74
2021/05/31 06:34:03;;;;;;;7.53;2.67;;;18.30;63.10;;;;;;5053362;28;20029;-73
2021/05/31 06:36:31;;;;;;;5.32;2.90;;;18.40;63.30;;;;;;5083988;28;20028;-73
2021/05/31 06:38:57;;;;;;;5.60;3.17;;;18.50;63.50;;;;;;5085606;28;20042;-74
2021/05/31 06:41:22;;;;;;;4.55;2.70;;;18.50;63.50;;;;;;5083732;28;20545;-74
2021/05/31 06:43:48;;;;;;;6.38;3.50;;;18.60;63.50;;;;;;5075714;28;20032;-74
2021/05/31 06:46:14;;;;;;;4.68;3.10;;;18.60;63.40;;;;;;5075364;28;20552;-74
2021/05/31 06:48:39;;;;;;;5.80;3.17;;;18.60;63.20;;;;;;5076066;28;20075;-73
2021/05/31 06:51:05;;;;;;;3.22;2.58;;;18.60;63.20;;;;;;5072381;28;20024;-76
2021/05/31 06:53:31;;;;;;;4.43;2.72;;;18.70;63.10;;;;;;5060893;28;20479;-73
2021/05/31 06:55:57;;;;;;;7.78;3.55;;;18.70;63.10;;;;;;5066959;28;20060;-74
2021/05/31 06:58:23;;;;;;;4.80;2.65;;;18.70;62.90;;;;;;5064253;28;20529;-74
2021/05/31 07:00:49;;;;;;;5.82;3.25;;;18.70;62.80;;;;;;5063224;28;20448;-76
2021/05/31 07:03:14;;;;;;;5.80;3.05;;;18.60;62.80;;;;;;5069548;28;20036;-74
2021/05/31 07:05:40;;;;;;;3.83;2.83;;;18.60;62.90;;;;;;5064959;28;20056;-74
2021/05/31 07:08:06;;;;;;;4.55;2.90;;;18.60;63.00;;;;;;5065913;28;20020;-74
2021/05/31 07:10:32;;;;;;;3.85;2.80;;;18.60;63.10;;;;;;5063204;28;20025;-74
2021/05/31 07:12:59;;;;;;;4.43;2.75;;;18.70;62.90;;;;;;5062397;28;20021;-78
2021/05/31 07:15:25;;;;;;;3.90;2.70;;;18.70;62.80;;;;;;5066406;28;20453;-75
2021/05/31 07:17:51;;;;;;;3.17;2.50;;;18.80;62.60;;;;;;5068862;28;20059;-76
2021/05/31 07:20:19;;;;;;;6.32;2.15;;;18.80;62.20;;;;;;5066822;28;20390;-75
2021/05/31 07:22:45;;;;;;;3.10;2.25;;;18.80;61.80;;;;;;5067175;28;20037;-75
2021/05/31 07:25:14;;;;;;;2.65;2.22;;;18.90;61.50;;;;;;5068420;28;20021;-74
2021/05/31 07:27:40;;;;;;;3.17;2.42;;;18.90;61.40;;;;;;5063946;28;20356;-74
2021/05/31 07:30:07;;;;;;;3.47;2.88;;;18.90;61.40;;;;;;5065926;28;20571;-74
2021/05/31 07:32:36;;;;;;;7.97;3.35;;;19.00;61.50;;;;;;5062981;28;20032;-74
2021/05/31 07:35:06;;;;;;;7.55;3.10;;;19.00;61.40;;;;;;5068381;28;20093;-74
2021/05/31 07:37:34;;;;;;;3.00;2.47;;;19.10;61.50;;;;;;5062255;28;20025;-75
2021/05/31 07:40:00;;;;;;;7.28;2.92;;;19.20;61.20;;;;;;5060166;28;20032;-75
2021/05/31 07:42:26;;;;;;;5.28;2.55;;;19.30;61.00;;;;;;5062388;28;20032;-73
2021/05/31 07:44:51;;;;;;;4.03;2.88;;;19.40;60.80;;;;;;5062465;28;20029;-75
2021/05/31 07:47:17;;;;;;;4.00;2.42;;;19.50;60.40;;;;;;5059338;28;20021;-75
2021/05/31 07:49:43;;;;;;;4.90;2.28;;;19.60;60.00;;;;;;5063984;28;20086;-75
2021/05/31 07:52:19;;;;;;;2.25;2.00;;;19.80;59.80;;;;;;5065284;28;20052;-77
2021/05/31 07:54:45;;;;;;;5.07;2.50;;;19.90;59.50;;;;;;5065526;28;20115;-74
2021/05/31 07:57:10;;;;;;;9.90;2.67;;;20.00;59.20;;;;;;5060331;28;20028;-77
2021/05/31 07:59:36;;;;;;;3.33;2.40;;;20.10;58.90;;;;;;5062172;28;20021;-76
2021/05/31 08:02:02;;;;;;;4.25;2.38;;;20.20;58.70;;;;;;5070363;28;20029;-77
2021/05/31 08:04:28;;;;;;;4.20;2.20;;;20.30;58.40;;;;;;5062119;28;20028;-74
2021/05/31 08:06:55;;;;;;;3.88;2.70;;;20.40;58.10;;;;;;5061734;28;20024;-74
2021/05/31 08:09:21;;;;;;;2.40;2.00;;;20.50;57.90;;;;;;5060961;28;20017;-74
2021/05/31 08:11:46;;;;;;;3.08;2.20;;;20.50;57.50;;;;;;5062267;28;20019;-75
2021/05/31 08:14:12;;;;;;;3.00;2.30;;;20.40;57.20;;;;;;5071352;28;20462;-75
2021/05/31 08:16:38;;;;;;;2.25;2.05;;;20.30;57.20;;;;;;5073256;28;20394;-74
2021/05/31 08:19:04;;;;;;;1.60;1.50;;;20.10;57.30;;;;;;5073109;28;20024;-73
2021/05/31 08:21:30;;;;;;;3.03;2.10;;;20.00;57.50;;;;;;5074365;28;20024;-75
2021/05/31 08:23:55;;;;;;;2.47;2.10;;;19.80;57.60;;;;;;5074195;28;20024;-74
2021/05/31 08:26:21;;;;;;;4.85;2.25;;;19.60;57.80;;;;;;5074045;28;20165;-75
2021/05/31 08:28:47;;;;;;;2.67;2.17;;;19.40;57.90;;;;;;5072948;28;20033;-76
2021/05/31 08:31:13;;;;;;;3.17;2.10;;;19.30;58.10;;;;;;5074073;28;20382;-75
2021/05/31 08:33:39;;;;;;;3.63;2.08;;;19.10;58.40;;;;;;5072996;28;20153;-75
2021/05/31 08:36:06;;;;;;;7.20;1.85;;;19.10;58.60;;;;;;5073704;28;20127;-76
2021/05/31 08:38:32;;;;;;;2.20;2.00;;;19.00;58.60;;;;;;5073880;28;20464;-74
2021/05/31 08:40:58;;;;;;;2.42;1.77;;;19.00;58.70;;;;;;5073720;28;20029;-74
2021/05/31 08:43:24;;;;;;;3.42;2.20;;;19.10;58.70;;;;;;5073717;28;20036;-75
2021/05/31 08:45:50;;;;;;;2.53;2.00;;;19.00;59.10;;;;;;5073392;28;20055;-74
2021/05/31 08:48:17;;;;;;;7.53;2.30;;;19.00;58.50;;;;;;5073744;28;20021;-74
2021/05/31 08:50:43;;;;;;;4.10;1.98;;;19.00;58.60;;;;;;5073699;28;20028;-74
2021/05/31 08:53:09;;;;;;;3.22;2.17;;;19.00;58.60;;;;;;5073732;28;20025;-74
2021/05/31 08:55:35;;;;;;;4.68;2.40;;;18.90;58.50;;;;;;5073524;28;20047;-74
2021/05/31 08:58:02;;;;;;;2.10;1.90;;;18.80;58.80;;;;;;5073687;28;20028;-75
2021/05/31 09:00:31;;;;;;;2.50;2.30;;;18.80;58.80;;;;;;5072395;28;20056;-75
2021/05/31 09:02:59;;;;;;;2.20;2.00;;;18.70;59.00;;;;;;5072814;28;20025;-75
2021/05/31 09:05:37;;;;;;;2.15;1.80;;;18.70;59.10;;;;;;5073249;28;20083;-76
2021/05/31 09:08:23;;;;;;;3.33;1.77;;;18.70;58.90;;;;;;5071455;28;20027;-74
2021/05/31 09:10:56;;;;;;;6.80;1.90;;;18.80;59.00;;;;;;5073990;28;20126;-74
2021/05/31 09:13:29;;;;;;;3.17;2.00;;;18.80;58.80;;;;;;5073441;28;20033;-76
2021/05/31 09:16:15;;;;;;;2.65;1.70;;;18.90;58.70;;;;;;5089121;28;20487;-75
2021/05/31 09:19:04;;;;;;;3.88;2.20;;;18.90;58.50;;;;;;5073127;28;20035;-74
2021/05/31 09:21:35;;;;;;;3.15;1.80;;;19.10;58.60;;;;;;5073351;28;20367;-74
2021/05/31 09:24:09;;;;;;;1.83;1.73;;;19.20;58.30;;;;;;5073260;28;20481;-75
2021/05/31 09:26:50;;;;;;;9.25;6.00;;;19.40;58.00;;;;;;5086706;28;20565;-75
2021/05/31 09:29:17;;;;;;;3.55;2.13;;;19.70;57.60;;;;;;5093520;28;20207;-75
2021/05/31 09:31:43;;;;;;;3.60;1.80;;;19.90;57.90;;;;;;5093493;28;20031;-74
2021/05/31 09:34:13;;;;;;;4.20;1.75;;;20.00;56.90;;;;;;5093197;28;20024;-75
2021/05/31 09:36:58;;;;;;;2.28;1.85;;;20.10;56.50;;;;;;5093310;28;20429;-74
2021/05/31 09:39:36;;;;;;;2.15;1.40;;;20.20;56.00;;;;;;5092273;28;20059;-74
2021/05/31 09:42:14;;;;;;;9.20;2.40;;;20.20;55.70;;;;;;5095272;28;20082;-74
2021/05/31 09:44:42;;;;;;;4.43;1.60;;;20.30;55.70;;;;;;5093498;28;20032;-74
2021/05/31 09:47:08;;;;;;;1.75;1.45;;;20.40;55.50;;;;;;5093412;28;20027;-74
2021/05/31 09:49:36;;;;;;;1.38;1.30;;;20.60;55.40;;;;;;5092983;28;20024;-74
2021/05/31 09:52:09;;;;;;;1.75;1.40;;;20.90;55.10;;;;;;5093349;28;20020;-74
2021/05/31 09:54:42;;;;;;;1.85;1.70;;;21.30;54.80;;;;;;5092247;28;20039;-77
2021/05/31 09:57:14;;;;;;;2.92;1.50;;;21.60;53.90;;;;;;5093013;28;20024;-74
2021/05/31 09:59:42;;;;;;;1.92;1.33;;;22.00;53.90;;;;;;5091538;28;20077;-74
2021/05/31 10:02:10;;;;;;;1.48;1.38;;;22.20;52.50;;;;;;5079499;28;20486;-79
2021/05/31 10:04:47;;;;;;;2.85;1.33;;;22.40;52.00;;;;;;5071781;28;20405;-75
2021/05/31 10:07:36;;;;;;;1.60;1.17;;;22.60;51.70;;;;;;5072651;28;20029;-75
2021/05/31 10:10:03;;;;;;;2.65;1.30;;;22.80;51.70;;;;;;5072705;28;20474;-76
2021/05/31 10:12:29;;;;;;;2.75;1.25;;;22.90;50.70;;;;;;5072747;28;20024;-75
2021/05/31 10:14:56;;;;;;;2.70;1.38;;;22.90;50.30;;;;;;5072574;28;20489;-74
2021/05/31 10:17:23;;;;;;;0.98;0.98;;;23.00;50.00;;;;;;5072908;28;20070;-75
2021/05/31 10:19:49;;;;;;;2.50;1.42;;;22.90;49.80;;;;;;5072816;28;20103;-76
2021/05/31 10:22:16;;;;;;;2.10;1.17;;;22.90;49.80;;;;;;5072619;28;20099;-75
2021/05/31 10:24:43;;;;;;;1.00;1.00;;;22.80;49.90;;;;;;5073088;28;20037;-75
2021/05/31 10:27:13;;;;;;;1.20;1.10;;;22.70;50.10;;;;;;5071336;28;20043;-75
2021/05/31 10:29:43;;;;;;;3.92;1.33;;;22.50;50.10;;;;;;5072682;28;20120;-75
2021/05/31 10:32:11;;;;;;;4.85;1.75;;;22.30;50.30;;;;;;5072931;28;20100;-74
2021/05/31 10:34:48;;;;;;;1.40;1.30;;;22.10;50.70;;;;;;5076292;28;20041;-75
2021/05/31 10:37:26;;;;;;;6.47;1.40;;;22.10;50.60;;;;;;5076255;28;20557;-74
2021/05/31 10:40:04;;;;;;;2.60;1.40;;;22.20;50.80;;;;;;5076422;28;20040;-75
2021/05/31 10:42:49;;;;;;;1.98;1.27;;;22.40;50.50;;;;;;5076024;28;20029;-76
2021/05/31 10:45:35;;;;;;;;;;;22.60;50.30;;;;;;5076089;28;20094;-75
2021/05/31 10:48:09;;;;;;;6.32;1.73;;;22.90;50.70;;;;;;5075217;28;19915;-76
2021/05/31 10:50:47;;;;;;;3.22;1.35;;;23.10;49.80;;;;;;5074782;28;20036;-76
2021/05/31 10:53:25;;;;;;;1.70;1.60;;;23.30;49.00;;;;;;5060136;28;20107;-75
2021/05/31 10:55:56;;;;;;;3.38;1.70;;;23.50;48.60;;;;;;5063753;28;20028;-75
2021/05/31 10:58:24;;;;;;;6.35;1.42;;;23.60;48.70;;;;;;5064520;28;20036;-73
2021/05/31 11:01:07;;;;;;;3.33;1.20;;;23.80;48.50;;;;;;5064994;28;20021;-75
2021/05/31 11:03:53;;;;;;;2.40;1.10;;;23.90;47.70;;;;;;5059407;28;20025;-75
2021/05/31 11:06:26;;;;;;;3.70;1.50;;;23.90;47.90;;;;;;5065848;28;20493;-75
2021/05/31 11:08:57;;;;;;;1.27;1.20;;;23.80;48.00;;;;;;5067215;28;20028;-75
2021/05/31 11:11:32;;;;;;;4.07;1.40;;;23.70;48.10;;;;;;5058697;28;20029;-75
2021/05/31 11:13:59;;;;;;;4.30;1.88;;;23.40;48.40;;;;;;5069260;28;20386;-75
2021/05/31 11:16:26;;;;;;;2.67;1.88;;;23.00;48.60;;;;;;5068918;28;20474;-74
2021/05/31 11:19:01;;;;;;;2.60;1.50;;;22.60;49.00;;;;;;5054050;28;20035;-74
2021/05/31 11:21:36;;;;;;;2.70;1.40;;;22.20;49.40;;;;;;5066912;28;20025;-74
2021/05/31 11:24:05;;;;;;;9.52;1.77;;;21.90;49.90;;;;;;5069101;28;20047;-76
2021/05/31 11:26:34;;;;;;;3.65;1.08;;;21.60;50.30;;;;;;5064000;28;20028;-75
2021/05/31 11:29:00;;;;;;;2.33;1.20;;;21.40;50.60;;;;;;5066260;28;20029;-75
2021/05/31 11:31:26;;;;;;;5.75;1.55;;;21.30;51.00;;;;;;5066552;28;20490;-74
2021/05/31 11:33:54;;;;;;;3.13;1.50;;;21.20;51.20;;;;;;5055410;28;20029;-75
2021/05/31 11:36:40;;;;;;;14.52;2.92;;;21.20;51.60;;;;;;5055347;28;20064;-74
2021/05/31 11:39:14;;;;;;;4.68;1.67;;;21.20;51.60;;;;;;5055359;28;20025;-74
2021/05/31 11:41:42;;;;;;;3.78;1.92;;;21.30;51.40;;;;;;5053611;28;20037;-75
2021/05/31 11:44:10;;;;;;;2.97;1.50;;;21.40;51.10;;;;;;5054876;28;20075;-76
2021/05/31 11:46:57;;;;;;;1.35;1.25;;;21.30;50.80;;;;;;5066615;28;20035;-74
2021/05/31 11:49:25;;;;;;;2.72;1.10;;;21.30;50.90;;;;;;5062193;28;20029;-74
2021/05/31 11:52:05;;;;;;;3.35;1.50;;;21.30;50.80;;;;;;5063718;28;20519;-75
2021/05/31 11:54:42;;;;;;;1.65;0.98;;;21.20;50.70;;;;;;5057995;28;20105;-75
2021/05/31 11:57:35;;;;;;;3.88;1.10;;;21.10;51.60;;;;;;5062749;28;20485;-75
2021/05/31 12:00:01;;;;;;;6.43;1.48;;;21.10;51.20;;;;;;5065683;28;20424;-76
2021/05/31 12:02:27;;;;;;;1.52;0.95;;;21.20;51.20;;;;;;5069715;28;20024;-75
2021/05/31 12:04:54;;;;;;;2.83;1.10;;;21.10;51.20;;;;;;5054575;28;20049;-75
2021/05/31 12:07:24;;;;;;;1.55;1.27;;;21.10;51.20;;;;;;5054574;28;20072;-76
2021/05/31 12:09:51;;;;;;;0.80;0.80;;;21.20;51.20;;;;;;5054543;28;20033;-74
2021/05/31 12:12:18;;;;;;;0.90;0.90;;;21.20;51.30;;;;;;5054128;28;20463;-75
2021/05/31 12:15:03;;;;;;;3.78;1.00;;;21.30;51.30;;;;;;5061269;28;20115;-74
2021/05/31 12:17:30;;;;;;;3.53;1.05;;;21.30;51.10;;;;;;5074345;28;20417;-75
2021/05/31 12:19:57;;;;;;;2.20;1.27;;;21.20;51.20;;;;;;5073273;28;20028;-75
2021/05/31 12:22:30;;;;;;;5.78;0.95;;;21.20;51.50;;;;;;5074319;28;20029;-78
2021/05/31 12:24:59;;;;;;;1.50;1.40;;;21.10;51.60;;;;;;5073556;28;20036;-75
2021/05/31 12:27:32;;;;;;;2.08;1.08;;;21.00;51.80;;;;;;5070951;28;20570;-88
2021/05/31 12:29:58;;;;;;;2.13;0.97;;;21.00;51.70;;;;;;5070807;28;20070;-75
2021/05/31 12:32:26;;;;;;;1.38;1.27;;;20.90;51.60;;;;;;5073463;28;20024;-81
2021/05/31 12:34:52;;;;;;;3.58;1.23;;;20.80;51.60;;;;;;5073430;28;20032;-75
2021/05/31 12:37:26;;;;;;;3.50;1.13;;;20.80;51.80;;;;;;5073255;28;20137;-75
2021/05/31 12:39:53;;;;;;;2.72;1.10;;;20.80;52.20;;;;;;5073140;28;20028;-76
2021/05/31 12:42:24;;;;;;;1.13;0.95;;;20.90;52.50;;;;;;5073486;28;20094;-75
2021/05/31 12:44:50;;;;;;;3.10;1.10;;;20.80;52.60;;;;;;5072774;28;20423;-74
2021/05/31 12:47:19;;;;;;;4.30;1.30;;;20.80;52.80;;;;;;5072032;28;20035;-75
2021/05/31 12:49:49;;;;;;;3.35;1.00;;;20.70;52.90;;;;;;5072782;28;20527;-75
2021/05/31 12:52:26;;;;;;;2.92;0.80;;;20.60;53.20;;;;;;5073242;28;20056;-75
2021/05/31 12:55:24;;;;;;;2.05;0.85;;;20.50;53.50;;;;;;5072917;28;20028;-76
2021/05/31 12:57:51;;;;;;;2.83;0.95;;;20.30;53.50;;;;;;5072706;28;20024;-76
2021/05/31 13:00:24;;;;;;;2.92;1.10;;;20.30;53.60;;;;;;5072889;28;20070;-74
2021/05/31 13:02:53;;;;;;;3.35;1.02;;;20.20;53.60;;;;;;5073737;28;20032;-74
2021/05/31 13:05:22;;;;;;;1.10;1.00;;;20.10;53.80;;;;;;5072770;28;20033;-74
2021/05/31 13:07:49;;;;;;;1.42;0.95;;;20.00;54.10;;;;;;5069148;28;20432;-74
2021/05/31 13:10:37;;;;;;;3.50;1.08;;;19.90;54.40;;;;;;5051766;28;20024;-74